sensor_id;sensor_type;location;lat;lon;timestamp;pressure;altitude;pressure_sealevel;temperature;humidity
43711;BME280;29309;42.682;23.372;2023-04-26T00:01:18;94277.38;;;9.69;92.90
43711;BME280;29309;42.682;23.372;2023-04-26T00:03:43;94278.00;;;9.68;93.48
43711;BME280;29309;42.682;23.372;2023-04-26T00:06:08;94273.63;;;9.63;93.34
43711;BME280;29309;42.682;23.372;2023-04-26T00:08:35;94275.63;;;9.60;93.64
43711;BME280;29309;42.682;23.372;2023-04-26T00:11:00;94265.72;;;9.55;93.59
43711;BME280;29309;42.682;23.372;2023-04-26T00:13:26;94264.31;;;9.54;93.46
43711;BME280;29309;42.682;23.372;2023-04-26T00:15:51;94255.19;;;9.52;93.21
43711;BME280;29309;42.682;23.372;2023-04-26T00:18:17;94253.16;;;9.52;93.72
43711;BME280;29309;42.682;23.372;2023-04-26T00:20:43;94248.16;;;9.49;93.48
43711;BME280;29309;42.682;23.372;2023-04-26T00:23:08;94247.38;;;9.46;93.45
43711;BME280;29309;42.682;23.372;2023-04-26T00:25:35;94243.03;;;9.41;93.51
43711;BME280;29309;42.682;23.372;2023-04-26T00:28:01;94242.19;;;9.36;93.44
43711;BME280;29309;42.682;23.372;2023-04-26T00:30:26;94236.38;;;9.30;93.83
43711;BME280;29309;42.682;23.372;2023-04-26T00:32:52;94247.47;;;9.30;93.81
43711;BME280;29309;42.682;23.372;2023-04-26T00:35:18;94242.47;;;9.27;93.92
43711;BME280;29309;42.682;23.372;2023-04-26T00:37:43;94235.38;;;9.22;94.36
43711;BME280;29309;42.682;23.372;2023-04-26T00:40:09;94231.56;;;9.13;94.26
43711;BME280;29309;42.682;23.372;2023-04-26T00:42:35;94233.56;;;9.11;94.42
43711;BME280;29309;42.682;23.372;2023-04-26T00:45:00;94229.28;;;9.08;94.82
43711;BME280;29309;42.682;23.372;2023-04-26T00:47:28;94233.84;;;9.01;95.06
43711;BME280;29309;42.682;23.372;2023-04-26T00:49:54;94237.09;;;8.96;95.42
43711;BME280;29309;42.682;23.372;2023-04-26T00:52:20;94233.69;;;8.97;96.29
43711;BME280;29309;42.682;23.372;2023-04-26T00:54:47;94243.34;;;8.96;96.30
43711;BME280;29309;42.682;23.372;2023-04-26T00:57:13;94234.94;;;8.94;96.69
43711;BME280;29309;42.682;23.372;2023-04-26T00:59:39;94236.38;;;8.95;96.61
43711;BME280;29309;42.682;23.372;2023-04-26T01:02:05;94236.88;;;8.89;96.76
43711;BME280;29309;42.682;23.372;2023-04-26T01:04:31;94236.22;;;8.91;97.05
43711;BME280;29309;42.682;23.372;2023-04-26T01:06:59;94244.63;;;8.93;97.24
43711;BME280;29309;42.682;23.372;2023-04-26T01:09:24;94234.78;;;8.90;97.22
43711;BME280;29309;42.682;23.372;2023-04-26T01:11:51;94245.31;;;8.94;97.21
43711;BME280;29309;42.682;23.372;2023-04-26T01:14:17;94242.47;;;8.92;97.41
43711;BME280;29309;42.682;23.372;2023-04-26T01:16:43;94243.03;;;8.88;97.59
43711;BME280;29309;42.682;23.372;2023-04-26T01:19:11;94244.28;;;8.85;97.42
43711;BME280;29309;42.682;23.372;2023-04-26T01:21:38;94245.63;;;8.84;97.93
43711;BME280;29309;42.682;23.372;2023-04-26T01:24:04;94245.00;;;8.85;97.68
43711;BME280;29309;42.682;23.372;2023-04-26T01:26:30;94237.31;;;8.84;97.76
43711;BME280;29309;42.682;23.372;2023-04-26T01:28:57;94219.03;;;8.77;97.83
43711;BME280;29309;42.682;23.372;2023-04-26T01:31:22;94221.25;;;8.80;97.65
43711;BME280;29309;42.682;23.372;2023-04-26T01:33:48;94214.94;;;8.78;97.93
43711;BME280;29309;42.682;23.372;2023-04-26T01:36:13;94216.91;;;8.75;97.76
43711;BME280;29309;42.682;23.372;2023-04-26T01:38:39;94225.28;;;8.77;98.17
43711;BME280;29309;42.682;23.372;2023-04-26T01:41:04;94221.75;;;8.75;98.28
43711;BME280;29309;42.682;23.372;2023-04-26T01:43:30;94227.34;;;8.77;98.33
43711;BME280;29309;42.682;23.372;2023-04-26T01:45:55;94226.22;;;8.66;98.12
43711;BME280;29309;42.682;23.372;2023-04-26T01:48:21;94233.19;;;8.67;98.03
43711;BME280;29309;42.682;23.372;2023-04-26T01:50:46;94240.69;;;8.65;98.46
43711;BME280;29309;42.682;23.372;2023-04-26T01:53:12;94237.13;;;8.62;98.31
43711;BME280;29309;42.682;23.372;2023-04-26T01:55:37;94244.09;;;8.63;98.23
43711;BME280;29309;42.682;23.372;2023-04-26T01:58:03;94241.94;;;8.62;98.12
43711;BME280;29309;42.682;23.372;2023-04-26T02:00:28;94241.16;;;8.59;98.07
43711;BME280;29309;42.682;23.372;2023-04-26T02:02:54;94243.38;;;8.63;98.66
43711;BME280;29309;42.682;23.372;2023-04-26T02:05:20;94232.31;;;8.63;97.95
43711;BME280;29309;42.682;23.372;2023-04-26T02:07:46;94230.25;;;8.63;98.71
43711;BME280;29309;42.682;23.372;2023-04-26T02:10:11;94220.63;;;8.64;98.48
43711;BME280;29309;42.682;23.372;2023-04-26T02:12:37;94222.56;;;8.62;98.40
43711;BME280;29309;42.682;23.372;2023-04-26T02:15:03;94220.63;;;8.64;98.23
43711;BME280;29309;42.682;23.372;2023-04-26T02:17:29;94226.84;;;8.65;98.23
43711;BME280;29309;42.682;23.372;2023-04-26T02:19:55;94217.03;;;8.62;98.54
43711;BME280;29309;42.682;23.372;2023-04-26T02:22:22;94210.72;;;8.59;98.29
43711;BME280;29309;42.682;23.372;2023-04-26T02:24:49;94214.91;;;8.60;98.13
43711;BME280;29309;42.682;23.372;2023-04-26T02:27:16;94212.22;;;8.62;98.01
43711;BME280;29309;42.682;23.372;2023-04-26T02:29:42;94216.25;;;8.59;97.92
43711;BME280;29309;42.682;23.372;2023-04-26T02:32:07;94212.69;;;8.57;97.81
43711;BME280;29309;42.682;23.372;2023-04-26T02:34:33;94221.00;;;8.57;98.17
43711;BME280;29309;42.682;23.372;2023-04-26T02:36:58;94217.88;;;8.49;97.74
43711;BME280;29309;42.682;23.372;2023-04-26T02:39:24;94220.25;;;8.38;98.20
43711;BME280;29309;42.682;23.372;2023-04-26T02:41:50;94227.66;;;8.34;98.12
43711;BME280;29309;42.682;23.372;2023-04-26T02:44:15;94223.38;;;8.31;98.70
43711;BME280;29309;42.682;23.372;2023-04-26T02:46:41;94222.47;;;8.26;98.67
43711;BME280;29309;42.682;23.372;2023-04-26T02:49:06;94218.91;;;8.24;99.16
43711;BME280;29309;42.682;23.372;2023-04-26T02:51:32;94216.94;;;8.26;99.39
43711;BME280;29309;42.682;23.372;2023-04-26T02:53:58;94221.31;;;8.31;99.43
43711;BME280;29309;42.682;23.372;2023-04-26T02:56:23;94206.25;;;8.34;99.84
43711;BME280;29309;42.682;23.372;2023-04-26T02:58:49;94204.91;;;8.35;100.00
43711;BME280;29309;42.682;23.372;2023-04-26T03:01:15;94193.69;;;8.31;99.96
43711;BME280;29309;42.682;23.372;2023-04-26T03:03:42;94202.66;;;8.32;99.78
43711;BME280;29309;42.682;23.372;2023-04-26T03:06:07;94203.91;;;8.29;99.41
43711;BME280;29309;42.682;23.372;2023-04-26T03:08:33;94204.09;;;8.33;99.35
43711;BME280;29309;42.682;23.372;2023-04-26T03:11:00;94209.63;;;8.33;99.67
43711;BME280;29309;42.682;23.372;2023-04-26T03:13:26;94208.47;;;8.38;99.49
43711;BME280;29309;42.682;23.372;2023-04-26T03:15:51;94209.25;;;8.40;99.32
43711;BME280;29309;42.682;23.372;2023-04-26T03:18:18;94208.00;;;8.44;99.43
43711;BME280;29309;42.682;23.372;2023-04-26T03:20:45;94203.88;;;8.45;99.29
43711;BME280;29309;42.682;23.372;2023-04-26T03:23:10;94195.75;;;8.49;99.15
43711;BME280;29309;42.682;23.372;2023-04-26T03:25:36;94199.78;;;8.46;98.94
43711;BME280;29309;42.682;23.372;2023-04-26T03:28:01;94203.41;;;8.50;98.58
43711;BME280;29309;42.682;23.372;2023-04-26T03:30:28;94194.50;;;8.52;98.68
43711;BME280;29309;42.682;23.372;2023-04-26T03:32:53;94196.72;;;8.55;98.77
43711;BME280;29309;42.682;23.372;2023-04-26T03:35:19;94201.47;;;8.53;98.36
43711;BME280;29309;42.682;23.372;2023-04-26T03:37:44;94207.06;;;8.55;98.32
43711;BME280;29309;42.682;23.372;2023-04-26T03:40:10;94201.81;;;8.61;98.28
43711;BME280;29309;42.682;23.372;2023-04-26T03:42:36;94202.59;;;8.63;97.94
43711;BME280;29309;42.682;23.372;2023-04-26T03:45:02;94212.88;;;8.61;97.40
43711;BME280;29309;42.682;23.372;2023-04-26T03:47:30;94204.72;;;8.65;97.75
43711;BME280;29309;42.682;23.372;2023-04-26T03:49:56;94208.47;;;8.71;97.27
43711;BME280;29309;42.682;23.372;2023-04-26T03:52:22;94211.69;;;8.83;97.39
43711;BME280;29309;42.682;23.372;2023-04-26T03:54:47;94211.47;;;8.95;97.14
43711;BME280;29309;42.682;23.372;2023-04-26T03:57:13;94213.28;;;9.06;96.79
43711;BME280;29309;42.682;23.372;2023-04-26T03:59:38;94218.75;;;9.22;96.87
43711;BME280;29309;42.682;23.372;2023-04-26T04:02:04;94211.16;;;9.40;96.47
43711;BME280;29309;42.682;23.372;2023-04-26T04:04:30;94222.28;;;9.60;96.50
43711;BME280;29309;42.682;23.372;2023-04-26T04:06:55;94222.56;;;9.68;95.49
43711;BME280;29309;42.682;23.372;2023-04-26T04:09:21;94229.97;;;9.81;94.80
43711;BME280;29309;42.682;23.372;2023-04-26T04:11:46;94228.84;;;9.88;94.08
43711;BME280;29309;42.682;23.372;2023-04-26T04:14:12;94230.50;;;9.95;92.85
43711;BME280;29309;42.682;23.372;2023-04-26T04:16:37;94243.09;;;9.98;91.70
43711;BME280;29309;42.682;23.372;2023-04-26T04:19:03;94245.22;;;10.00;91.23
43711;BME280;29309;42.682;23.372;2023-04-26T04:21:29;94245.94;;;10.00;90.30
43711;BME280;29309;42.682;23.372;2023-04-26T04:23:54;94237.69;;;10.02;89.47
43711;BME280;29309;42.682;23.372;2023-04-26T04:26:20;94245.38;;;10.04;88.93
43711;BME280;29309;42.682;23.372;2023-04-26T04:28:45;94254.63;;;10.10;88.69
43711;BME280;29309;42.682;23.372;2023-04-26T04:31:11;94249.06;;;10.10;88.57
43711;BME280;29309;42.682;23.372;2023-04-26T04:33:37;94250.50;;;10.11;88.35
43711;BME280;29309;42.682;23.372;2023-04-26T04:36:03;94247.97;;;10.17;88.06
43711;BME280;29309;42.682;23.372;2023-04-26T04:38:28;94259.91;;;10.22;87.61
43711;BME280;29309;42.682;23.372;2023-04-26T04:40:55;94264.13;;;10.23;87.29
43711;BME280;29309;42.682;23.372;2023-04-26T04:43:21;94245.41;;;10.23;87.56
43711;BME280;29309;42.682;23.372;2023-04-26T04:45:47;94244.13;;;10.26;86.91
43711;BME280;29309;42.682;23.372;2023-04-26T04:48:16;94257.50;;;10.32;86.63
43711;BME280;29309;42.682;23.372;2023-04-26T04:50:42;94260.41;;;10.36;85.95
43711;BME280;29309;42.682;23.372;2023-04-26T04:53:08;94255.72;;;10.41;85.95
43711;BME280;29309;42.682;23.372;2023-04-26T04:55:34;94256.59;;;10.45;85.78
43711;BME280;29309;42.682;23.372;2023-04-26T04:58:01;94257.41;;;10.50;85.08
43711;BME280;29309;42.682;23.372;2023-04-26T05:00:28;94252.78;;;10.56;85.25
43711;BME280;29309;42.682;23.372;2023-04-26T05:02:53;94256.22;;;10.55;84.78
43711;BME280;29309;42.682;23.372;2023-04-26T05:05:19;94259.84;;;10.59;84.48
43711;BME280;29309;42.682;23.372;2023-04-26T05:07:44;94263.47;;;10.64;84.09
43711;BME280;29309;42.682;23.372;2023-04-26T05:10:10;94259.41;;;10.67;84.12
43711;BME280;29309;42.682;23.372;2023-04-26T05:12:36;94251.34;;;10.75;84.22
43711;BME280;29309;42.682;23.372;2023-04-26T05:15:02;94260.59;;;10.81;84.20
43711;BME280;29309;42.682;23.372;2023-04-26T05:17:28;94254.53;;;10.87;83.87
43711;BME280;29309;42.682;23.372;2023-04-26T05:19:56;94259.56;;;10.93;83.45
43711;BME280;29309;42.682;23.372;2023-04-26T05:22:22;94265.91;;;10.95;83.02
43711;BME280;29309;42.682;23.372;2023-04-26T05:24:48;94262.63;;;11.01;82.53
43711;BME280;29309;42.682;23.372;2023-04-26T05:27:13;94264.09;;;11.04;82.00
43711;BME280;29309;42.682;23.372;2023-04-26T05:29:39;94265.66;;;11.09;81.09
43711;BME280;29309;42.682;23.372;2023-04-26T05:32:05;94278.38;;;11.16;81.17
43711;BME280;29309;42.682;23.372;2023-04-26T05:34:31;94277.88;;;11.21;81.09
43711;BME280;29309;42.682;23.372;2023-04-26T05:36:56;94275.34;;;11.29;81.10
43711;BME280;29309;42.682;23.372;2023-04-26T05:39:22;94277.09;;;11.41;81.05
43711;BME280;29309;42.682;23.372;2023-04-26T05:41:47;94275.22;;;11.47;81.17
43711;BME280;29309;42.682;23.372;2023-04-26T05:44:13;94278.25;;;11.55;80.36
43711;BME280;29309;42.682;23.372;2023-04-26T05:46:39;94283.41;;;11.65;80.60
43711;BME280;29309;42.682;23.372;2023-04-26T05:49:05;94283.69;;;11.73;79.44
43711;BME280;29309;42.682;23.372;2023-04-26T05:51:30;94279.13;;;11.83;78.34
43711;BME280;29309;42.682;23.372;2023-04-26T05:53:56;94285.06;;;11.96;77.74
43711;BME280;29309;42.682;23.372;2023-04-26T05:56:22;94279.69;;;12.02;77.45
43711;BME280;29309;42.682;23.372;2023-04-26T05:58:48;94293.19;;;12.11;76.94
43711;BME280;29309;42.682;23.372;2023-04-26T06:01:14;94281.47;;;12.15;75.61
43711;BME280;29309;42.682;23.372;2023-04-26T06:03:39;94285.25;;;12.25;75.36
43711;BME280;29309;42.682;23.372;2023-04-26T06:06:05;94281.19;;;12.30;76.12
43711;BME280;29309;42.682;23.372;2023-04-26T06:08:32;94284.81;;;12.35;76.64
43711;BME280;29309;42.682;23.372;2023-04-26T06:10:57;94284.94;;;12.39;76.36
43711;BME280;29309;42.682;23.372;2023-04-26T06:13:23;94285.75;;;12.44;75.85
43711;BME280;29309;42.682;23.372;2023-04-26T06:15:48;94290.03;;;12.47;75.01
43711;BME280;29309;42.682;23.372;2023-04-26T06:18:13;94285.09;;;12.45;75.34
43711;BME280;29309;42.682;23.372;2023-04-26T06:20:39;94285.31;;;12.53;75.64
43711;BME280;29309;42.682;23.372;2023-04-26T06:23:05;94284.88;;;12.63;74.56
43711;BME280;29309;42.682;23.372;2023-04-26T06:25:31;94281.06;;;12.76;74.21
43711;BME280;29309;42.682;23.372;2023-04-26T06:27:56;94286.16;;;12.83;73.31
43711;BME280;29309;42.682;23.372;2023-04-26T06:30:23;94278.16;;;12.98;73.39
43711;BME280;29309;42.682;23.372;2023-04-26T06:32:48;94284.31;;;13.20;72.97
43711;BME280;29309;42.682;23.372;2023-04-26T06:35:14;94280.00;;;13.43;72.57
43711;BME280;29309;42.682;23.372;2023-04-26T06:37:40;94288.50;;;13.78;71.82
43711;BME280;29309;42.682;23.372;2023-04-26T06:40:06;94279.19;;;14.32;70.20
43711;BME280;29309;42.682;23.372;2023-04-26T06:42:32;94290.06;;;14.85;68.19
43711;BME280;29309;42.682;23.372;2023-04-26T06:44:57;94285.34;;;15.34;66.54
43711;BME280;29309;42.682;23.372;2023-04-26T06:47:23;94275.00;;;15.84;64.63
43711;BME280;29309;42.682;23.372;2023-04-26T06:49:48;94275.69;;;16.35;60.83
43711;BME280;29309;42.682;23.372;2023-04-26T06:52:16;94278.22;;;16.68;55.17
43711;BME280;29309;42.682;23.372;2023-04-26T06:54:41;94270.16;;;16.99;53.93
43711;BME280;29309;42.682;23.372;2023-04-26T06:57:07;94273.81;;;17.15;53.67
43711;BME280;29309;42.682;23.372;2023-04-26T06:59:32;94284.94;;;17.03;53.82
43711;BME280;29309;42.682;23.372;2023-04-26T07:01:58;94289.53;;;16.79;51.71
43711;BME280;29309;42.682;23.372;2023-04-26T07:04:24;94284.09;;;16.35;52.08
43711;BME280;29309;42.682;23.372;2023-04-26T07:06:51;94286.66;;;16.18;52.36
43711;BME280;29309;42.682;23.372;2023-04-26T07:09:17;94282.63;;;16.30;52.65
43711;BME280;29309;42.682;23.372;2023-04-26T07:11:45;94288.88;;;16.26;51.00
43711;BME280;29309;42.682;23.372;2023-04-26T07:14:11;94286.78;;;16.29;51.20
43711;BME280;29309;42.682;23.372;2023-04-26T07:16:36;94286.75;;;16.24;51.59
43711;BME280;29309;42.682;23.372;2023-04-26T07:19:02;94293.75;;;16.23;51.27
43711;BME280;29309;42.682;23.372;2023-04-26T07:21:27;94295.72;;;16.15;50.49
43711;BME280;29309;42.682;23.372;2023-04-26T07:23:54;94293.56;;;16.09;51.52
43711;BME280;29309;42.682;23.372;2023-04-26T07:26:20;94298.22;;;15.95;50.90
43711;BME280;29309;42.682;23.372;2023-04-26T07:28:46;94299.94;;;15.70;51.38
43711;BME280;29309;42.682;23.372;2023-04-26T07:31:11;94298.16;;;15.47;51.77
43711;BME280;29309;42.682;23.372;2023-04-26T07:33:36;94298.81;;;15.45;52.79
43711;BME280;29309;42.682;23.372;2023-04-26T07:36:03;94301.56;;;15.85;52.43
43711;BME280;29309;42.682;23.372;2023-04-26T07:38:28;94304.56;;;15.97;51.29
43711;BME280;29309;42.682;23.372;2023-04-26T07:40:54;94301.97;;;16.13;51.23
43711;BME280;29309;42.682;23.372;2023-04-26T07:43:20;94301.00;;;15.93;50.77
43711;BME280;29309;42.682;23.372;2023-04-26T07:45:45;94310.34;;;16.09;50.60
43711;BME280;29309;42.682;23.372;2023-04-26T07:48:11;94308.53;;;16.32;50.99
43711;BME280;29309;42.682;23.372;2023-04-26T07:50:37;94302.00;;;16.63;50.43
43711;BME280;29309;42.682;23.372;2023-04-26T07:53:03;94305.69;;;16.78;50.05
43711;BME280;29309;42.682;23.372;2023-04-26T07:55:29;94314.16;;;16.84;47.86
43711;BME280;29309;42.682;23.372;2023-04-26T07:57:54;94300.06;;;16.78;47.54
43711;BME280;29309;42.682;23.372;2023-04-26T08:00:20;94305.56;;;16.70;47.15
43711;BME280;29309;42.682;23.372;2023-04-26T08:02:47;94313.28;;;16.71;46.45
43711;BME280;29309;42.682;23.372;2023-04-26T08:05:14;94308.06;;;16.46;45.90
43711;BME280;29309;42.682;23.372;2023-04-26T08:07:40;94302.28;;;16.36;46.77
43711;BME280;29309;42.682;23.372;2023-04-26T08:10:06;94303.25;;;16.54;47.55
43711;BME280;29309;42.682;23.372;2023-04-26T08:12:33;94316.69;;;16.62;48.34
43711;BME280;29309;42.682;23.372;2023-04-26T08:15:00;94302.78;;;16.72;48.44
43711;BME280;29309;42.682;23.372;2023-04-26T08:17:25;94305.63;;;16.74;47.71
43711;BME280;29309;42.682;23.372;2023-04-26T08:19:51;94304.31;;;16.81;46.83
43711;BME280;29309;42.682;23.372;2023-04-26T08:22:17;94308.53;;;16.84;46.89
43711;BME280;29309;42.682;23.372;2023-04-26T08:24:47;94311.44;;;16.94;46.97
43711;BME280;29309;42.682;23.372;2023-04-26T08:27:14;94316.59;;;17.14;46.63
43711;BME280;29309;42.682;23.372;2023-04-26T08:29:40;94300.66;;;17.35;46.38
43711;BME280;29309;42.682;23.372;2023-04-26T08:32:06;94308.53;;;17.52;45.21
43711;BME280;29309;42.682;23.372;2023-04-26T08:34:31;94309.41;;;17.69;45.10
43711;BME280;29309;42.682;23.372;2023-04-26T08:36:57;94302.44;;;17.72;45.00
43711;BME280;29309;42.682;23.372;2023-04-26T08:39:22;94303.84;;;17.75;45.05
43711;BME280;29309;42.682;23.372;2023-04-26T08:41:55;94299.63;;;17.76;44.63
43711;BME280;29309;42.682;23.372;2023-04-26T08:44:24;94300.31;;;17.73;44.77
43711;BME280;29309;42.682;23.372;2023-04-26T08:52:02;94311.97;;;17.43;44.74
43711;BME280;29309;42.682;23.372;2023-04-26T08:54:29;94300.00;;;17.38;45.27
43711;BME280;29309;42.682;23.372;2023-04-26T08:56:58;94314.63;;;17.29;44.89
43711;BME280;29309;42.682;23.372;2023-04-26T08:59:23;94308.84;;;17.10;45.27
43711;BME280;29309;42.682;23.372;2023-04-26T09:01:49;94310.09;;;16.97;46.07
43711;BME280;29309;42.682;23.372;2023-04-26T09:04:15;94302.94;;;16.84;45.17
43711;BME280;29309;42.682;23.372;2023-04-26T09:06:41;94302.59;;;16.56;45.29
43711;BME280;29309;42.682;23.372;2023-04-26T09:09:08;94305.22;;;16.44;45.39
43711;BME280;29309;42.682;23.372;2023-04-26T09:11:58;94302.03;;;16.15;45.98
43711;BME280;29309;42.682;23.372;2023-04-26T09:14:24;94305.97;;;15.98;47.13
43711;BME280;29309;42.682;23.372;2023-04-26T09:16:50;94307.97;;;15.92;46.79
43711;BME280;29309;42.682;23.372;2023-04-26T09:19:16;94314.25;;;15.90;47.18
43711;BME280;29309;42.682;23.372;2023-04-26T09:21:44;94304.53;;;15.95;47.80
43711;BME280;29309;42.682;23.372;2023-04-26T09:24:11;94310.31;;;16.07;47.34
43711;BME280;29309;42.682;23.372;2023-04-26T09:26:37;94314.59;;;16.12;45.80
43711;BME280;29309;42.682;23.372;2023-04-26T09:29:17;94315.25;;;16.09;46.24
43711;BME280;29309;42.682;23.372;2023-04-26T09:31:48;94321.59;;;16.13;46.61
43711;BME280;29309;42.682;23.372;2023-04-26T09:34:14;94316.09;;;16.19;46.64
43711;BME280;29309;42.682;23.372;2023-04-26T09:39:14;94318.50;;;15.95;46.15
43711;BME280;29309;42.682;23.372;2023-04-26T09:41:53;94313.03;;;16.01;45.80
43711;BME280;29309;42.682;23.372;2023-04-26T09:44:23;94310.75;;;15.92;45.75
43711;BME280;29309;42.682;23.372;2023-04-26T09:47:08;94307.22;;;15.87;46.22
43711;BME280;29309;42.682;23.372;2023-04-26T09:49:48;94302.78;;;15.74;45.78
43711;BME280;29309;42.682;23.372;2023-04-26T09:52:16;94306.31;;;15.74;46.84
43711;BME280;29309;42.682;23.372;2023-04-26T09:57:11;94300.94;;;15.47;46.10
43711;BME280;29309;42.682;23.372;2023-04-26T09:59:46;94300.88;;;15.43;46.17
43711;BME280;29309;42.682;23.372;2023-04-26T10:02:30;94306.44;;;15.41;46.79
43711;BME280;29309;42.682;23.372;2023-04-26T10:04:56;94303.75;;;15.47;47.14
43711;BME280;29309;42.682;23.372;2023-04-26T10:07:24;94303.78;;;15.49;46.56
43711;BME280;29309;42.682;23.372;2023-04-26T10:09:50;94305.25;;;15.52;46.31
43711;BME280;29309;42.682;23.372;2023-04-26T10:12:18;94302.56;;;15.58;45.95
43711;BME280;29309;42.682;23.372;2023-04-26T10:14:44;94299.13;;;15.61;45.96
43711;BME280;29309;42.682;23.372;2023-04-26T10:17:11;94299.84;;;15.64;45.04
43711;BME280;29309;42.682;23.372;2023-04-26T10:19:39;94302.72;;;15.70;44.97
43711;BME280;29309;42.682;23.372;2023-04-26T10:22:26;94300.19;;;15.84;44.63
43711;BME280;29309;42.682;23.372;2023-04-26T10:24:53;94291.28;;;15.98;44.33
43711;BME280;29309;42.682;23.372;2023-04-26T10:27:47;94298.97;;;15.97;43.42
43711;BME280;29309;42.682;23.372;2023-04-26T10:30:15;94296.09;;;15.91;43.17
43711;BME280;29309;42.682;23.372;2023-04-26T10:35:22;94279.28;;;15.91;42.31
43711;BME280;29309;42.682;23.372;2023-04-26T10:45:47;94297.31;;;15.80;43.47
43711;BME280;29309;42.682;23.372;2023-04-26T10:48:14;94280.38;;;15.72;42.21
43711;BME280;29309;42.682;23.372;2023-04-26T10:53:24;94283.91;;;15.74;41.84
43711;BME280;29309;42.682;23.372;2023-04-26T10:55:50;94284.56;;;15.71;41.71
43711;BME280;29309;42.682;23.372;2023-04-26T10:58:29;94278.25;;;15.70;40.85
43711;BME280;29309;42.682;23.372;2023-04-26T11:01:05;94286.56;;;15.64;41.07
43711;BME280;29309;42.682;23.372;2023-04-26T11:03:31;94283.78;;;15.64;42.19
43711;BME280;29309;42.682;23.372;2023-04-26T11:05:57;94282.31;;;15.61;42.30
43711;BME280;29309;42.682;23.372;2023-04-26T11:08:26;94280.31;;;15.68;41.34
43711;BME280;29309;42.682;23.372;2023-04-26T11:13:30;94288.00;;;15.65;40.73
43711;BME280;29309;42.682;23.372;2023-04-26T11:16:00;94276.69;;;15.59;41.00
43711;BME280;29309;42.682;23.372;2023-04-26T11:18:30;94275.47;;;15.70;41.22
43711;BME280;29309;42.682;23.372;2023-04-26T11:21:00;94277.63;;;15.74;41.50
43711;BME280;29309;42.682;23.372;2023-04-26T11:23:29;94276.28;;;15.77;40.79
43711;BME280;29309;42.682;23.372;2023-04-26T11:25:59;94278.53;;;15.89;41.27
43711;BME280;29309;42.682;23.372;2023-04-26T11:28:27;94280.81;;;16.00;41.70
43711;BME280;29309;42.682;23.372;2023-04-26T11:30:53;94274.03;;;16.17;41.44
43711;BME280;29309;42.682;23.372;2023-04-26T11:33:20;94283.31;;;16.30;40.42
43711;BME280;29309;42.682;23.372;2023-04-26T11:35:50;94272.66;;;16.18;40.25
43711;BME280;29309;42.682;23.372;2023-04-26T11:38:17;94283.06;;;16.12;40.25
43711;BME280;29309;42.682;23.372;2023-04-26T11:40:58;94273.25;;;16.11;39.33
43711;BME280;29309;42.682;23.372;2023-04-26T11:43:37;94281.72;;;16.15;40.26
43711;BME280;29309;42.682;23.372;2023-04-26T11:46:07;94275.41;;;16.14;40.75
43711;BME280;29309;42.682;23.372;2023-04-26T11:48:35;94282.50;;;16.19;40.13
43711;BME280;29309;42.682;23.372;2023-04-26T11:51:02;94280.47;;;16.26;39.56
43711;BME280;29309;42.682;23.372;2023-04-26T11:53:39;94278.53;;;16.39;38.34
43711;BME280;29309;42.682;23.372;2023-04-26T11:56:16;94272.09;;;16.28;38.72
43711;BME280;29309;42.682;23.372;2023-04-26T11:58:45;94273.69;;;16.43;39.49
43711;BME280;29309;42.682;23.372;2023-04-26T12:01:11;94264.81;;;16.61;38.97
43711;BME280;29309;42.682;23.372;2023-04-26T12:03:42;94260.75;;;16.72;38.69
43711;BME280;29309;42.682;23.372;2023-04-26T12:06:08;94267.81;;;16.79;38.30
43711;BME280;29309;42.682;23.372;2023-04-26T12:08:34;94267.72;;;16.69;39.00
43711;BME280;29309;42.682;23.372;2023-04-26T12:11:01;94268.91;;;16.54;39.62
43711;BME280;29309;42.682;23.372;2023-04-26T12:13:30;94272.78;;;16.29;39.95
43711;BME280;29309;42.682;23.372;2023-04-26T12:15:56;94272.00;;;16.22;40.40
43711;BME280;29309;42.682;23.372;2023-04-26T12:18:29;94269.91;;;16.20;40.32
43711;BME280;29309;42.682;23.372;2023-04-26T12:20:57;94259.50;;;16.29;40.59
43711;BME280;29309;42.682;23.372;2023-04-26T12:23:23;94270.97;;;16.49;40.76
43711;BME280;29309;42.682;23.372;2023-04-26T12:25:54;94263.44;;;16.62;39.62
43711;BME280;29309;42.682;23.372;2023-04-26T12:28:21;94263.19;;;16.44;39.18
43711;BME280;29309;42.682;23.372;2023-04-26T12:30:47;94266.56;;;16.34;39.93
43711;BME280;29309;42.682;23.372;2023-04-26T12:33:13;94267.19;;;16.27;39.58
43711;BME280;29309;42.682;23.372;2023-04-26T12:35:38;94249.59;;;16.20;39.27
43711;BME280;29309;42.682;23.372;2023-04-26T12:38:04;94263.44;;;16.10;39.63
43711;BME280;29309;42.682;23.372;2023-04-26T12:40:29;94256.38;;;16.05;39.76
43711;BME280;29309;42.682;23.372;2023-04-26T12:42:56;94264.72;;;15.99;39.87
43711;BME280;29309;42.682;23.372;2023-04-26T12:45:23;94258.97;;;15.91;39.63
43711;BME280;29309;42.682;23.372;2023-04-26T12:47:50;94265.28;;;15.91;39.92
43711;BME280;29309;42.682;23.372;2023-04-26T12:50:15;94260.38;;;15.90;40.43
43711;BME280;29309;42.682;23.372;2023-04-26T12:52:43;94253.91;;;15.79;39.83
43711;BME280;29309;42.682;23.372;2023-04-26T12:55:13;94258.59;;;15.64;40.07
43711;BME280;29309;42.682;23.372;2023-04-26T12:57:40;94259.09;;;15.53;40.72
43711;BME280;29309;42.682;23.372;2023-04-26T13:00:09;94268.03;;;15.43;41.25
43711;BME280;29309;42.682;23.372;2023-04-26T13:02:36;94274.81;;;15.32;41.85
43711;BME280;29309;42.682;23.372;2023-04-26T13:05:02;94262.13;;;15.25;41.07
43711;BME280;29309;42.682;23.372;2023-04-26T13:07:33;94273.91;;;15.19;41.80
43711;BME280;29309;42.682;23.372;2023-04-26T13:09:59;94276.66;;;15.15;42.00
43711;BME280;29309;42.682;23.372;2023-04-26T13:12:25;94268.69;;;15.02;41.13
43711;BME280;29309;42.682;23.372;2023-04-26T13:14:51;94275.47;;;14.89;41.68
43711;BME280;29309;42.682;23.372;2023-04-26T13:17:17;94279.50;;;14.82;42.23